createdAt,value
2022-08-30T00:01:29.833Z,28.23
2022-08-30T00:03:58.503Z,30.30
2022-08-30T00:06:28.611Z,31.73
2022-08-30T00:08:57.376Z,30.27
2022-08-30T00:11:28.555Z,29.63
2022-08-30T00:13:58.451Z,31.40
2022-08-30T00:16:28.167Z,31.00
2022-08-30T00:18:57.815Z,31.33
2022-08-30T00:21:27.247Z,30.27
2022-08-30T00:23:55.755Z,27.97
2022-08-30T00:26:23.784Z,28.80
2022-08-30T00:28:51.803Z,27.67
2022-08-30T00:31:20.276Z,27.93
2022-08-30T00:33:49.898Z,26.93
2022-08-30T00:36:18.078Z,26.87
2022-08-30T00:38:46.481Z,27.00
2022-08-30T00:41:14.564Z,26.80
2022-08-30T00:43:42.918Z,26.93
2022-08-30T00:46:11.069Z,25.97
2022-08-30T00:48:44.047Z,25.53
2022-08-30T00:51:15.546Z,26.13
2022-08-30T00:53:47.855Z,24.93
2022-08-30T00:56:16.851Z,25.07
2022-08-30T00:58:49.868Z,28.43
2022-08-30T01:01:18.405Z,26.93
2022-08-30T01:03:47.290Z,29.90
2022-08-30T01:06:17.818Z,30.97
2022-08-30T01:08:47.286Z,28.13
2022-08-30T01:11:20.178Z,28.10
2022-08-30T01:13:49.659Z,25.63
2022-08-30T01:16:18.224Z,25.93
2022-08-30T01:18:47.472Z,25.00
2022-08-30T01:21:24.468Z,23.87
2022-08-30T01:23:57.117Z,23.67
2022-08-30T01:26:27.155Z,24.53
2022-08-30T01:29:01.300Z,26.60
2022-08-30T01:31:29.372Z,29.50
2022-08-30T01:33:57.447Z,27.30
2022-08-30T01:36:26.178Z,27.73
2022-08-30T01:38:57.418Z,28.20
2022-08-30T01:41:28.370Z,25.93
2022-08-30T01:43:58.337Z,23.53
2022-08-30T01:46:29.849Z,19.57
2022-08-30T01:48:59.724Z,21.50
2022-08-30T01:51:29.534Z,22.77
2022-08-30T01:53:59.659Z,21.63
2022-08-30T01:56:28.718Z,22.93
2022-08-30T01:59:01.802Z,21.63
2022-08-30T02:01:32.523Z,21.50
2022-08-30T02:04:01.631Z,21.23
2022-08-30T02:06:29.753Z,19.87
2022-08-30T02:08:59.931Z,20.50
2022-08-30T02:11:28.511Z,20.20
2022-08-30T02:13:56.875Z,19.67
2022-08-30T02:16:26.206Z,18.33
2022-08-30T02:18:56.556Z,21.97
2022-08-30T02:21:24.868Z,22.50
2022-08-30T02:23:53.403Z,21.70
2022-08-30T02:26:23.504Z,22.43
2022-08-30T02:28:52.484Z,25.00
2022-08-30T02:31:21.941Z,23.30
2022-08-30T02:33:50.947Z,22.93
2022-08-30T02:36:20.777Z,24.90
2022-08-30T02:38:48.837Z,23.53
2022-08-30T02:41:17.512Z,24.10
2022-08-30T02:43:47.316Z,24.43
2022-08-30T02:46:15.403Z,24.40
2022-08-30T02:48:43.644Z,23.00
2022-08-30T02:51:14.228Z,24.33
2022-08-30T02:53:43.758Z,23.37
2022-08-30T02:56:12.126Z,25.27
2022-08-30T02:58:42.692Z,26.57
2022-08-30T03:01:14.216Z,27.50
2022-08-30T03:03:44.124Z,26.20
2022-08-30T03:06:12.452Z,26.70
2022-08-30T03:08:40.838Z,31.03
2022-08-30T03:11:09.820Z,29.87
2022-08-30T03:13:37.959Z,28.77
2022-08-30T03:16:06.133Z,26.07
2022-08-30T03:18:35.517Z,29.57
2022-08-30T03:21:04.577Z,32.17
2022-08-30T03:23:32.713Z,34.90
2022-08-30T03:26:00.679Z,34.17
2022-08-30T03:28:29.672Z,31.53
2022-08-30T03:30:57.525Z,28.73
2022-08-30T03:33:26.116Z,31.57
2022-08-30T03:35:56.816Z,29.13
2022-08-30T03:38:24.957Z,27.97
2022-08-30T03:40:53.164Z,27.30
2022-08-30T03:43:21.353Z,26.33
2022-08-30T03:45:49.704Z,26.93
2022-08-30T03:48:18.147Z,31.00
2022-08-30T03:50:46.069Z,32.70
2022-08-30T03:53:15.718Z,31.77
2022-08-30T03:55:43.847Z,29.47
2022-08-30T03:58:12.852Z,29.17
2022-08-30T04:00:47.193Z,29.70
2022-08-30T04:03:15.351Z,32.77
2022-08-30T04:05:43.431Z,32.23
2022-08-30T04:08:11.300Z,30.07
2022-08-30T04:10:40.729Z,31.73
2022-08-30T04:13:08.917Z,30.80
2022-08-30T04:15:37.144Z,32.67
2022-08-30T04:18:05.613Z,32.50
2022-08-30T04:20:34.215Z,31.07
2022-08-30T04:23:02.464Z,31.10
2022-08-30T04:25:30.786Z,27.67
2022-08-30T04:28:00.172Z,28.80
2022-08-30T04:30:28.654Z,28.53
2022-08-30T04:32:58.777Z,30.30
2022-08-30T04:35:27.215Z,27.97
2022-08-30T04:37:55.407Z,28.93
2022-08-30T04:40:24.005Z,26.67
2022-08-30T04:42:54.896Z,27.93
2022-08-30T04:45:24.467Z,27.90
2022-08-30T04:47:52.978Z,27.77
2022-08-30T04:50:24.707Z,20.57
2022-08-30T04:52:53.052Z,15.37
2022-08-30T04:55:21.869Z,14.50
2022-08-30T04:57:50.888Z,19.77
2022-08-30T05:00:21.019Z,21.83
2022-08-30T05:02:51.673Z,17.47
2022-08-30T05:05:37.517Z,21.40
2022-08-30T05:08:05.908Z,25.77
2022-08-30T05:10:34.570Z,20.13
2022-08-30T05:13:02.684Z,17.17
2022-08-30T05:15:30.643Z,16.83
2022-08-30T05:18:00.286Z,19.80
2022-08-30T05:20:28.823Z,16.37
2022-08-30T05:22:57.252Z,19.00
2022-08-30T05:25:27.865Z,24.60
2022-08-30T05:27:56.519Z,25.17
2022-08-30T05:30:26.486Z,29.90
2022-08-30T05:32:55.288Z,29.73
2022-08-30T05:35:25.855Z,33.47
2022-08-30T05:37:55.419Z,30.97
2022-08-30T05:40:23.826Z,29.43
2022-08-30T05:42:53.095Z,26.93
2022-08-30T05:45:21.624Z,28.13
2022-08-30T05:47:49.975Z,28.23
2022-08-30T05:50:17.976Z,37.13
2022-08-30T05:52:47.382Z,40.33
2022-08-30T05:55:15.903Z,48.07
2022-08-30T05:57:44.317Z,82.47
2022-08-30T06:00:15.556Z,70.57
2022-08-30T06:02:43.891Z,67.80
2022-08-30T06:05:14.321Z,98.67
2022-08-30T06:07:47.853Z,108.22
2022-08-30T06:10:17.387Z,115.80
2022-08-30T06:12:45.807Z,120.93
2022-08-30T06:15:14.036Z,143.30
2022-08-30T06:17:42.057Z,131.50
2022-08-30T06:20:11.356Z,126.15
2022-08-30T06:22:39.770Z,127.90
2022-08-30T06:25:08.951Z,145.18
2022-08-30T06:27:38.778Z,156.50
2022-08-30T06:30:08.898Z,164.70
2022-08-30T06:32:37.012Z,178.07
2022-08-30T06:35:06.000Z,266.55
2022-08-30T06:37:35.623Z,325.27
2022-08-30T06:40:05.235Z,327.13
2022-08-30T06:42:34.734Z,248.30
2022-08-30T06:45:10.685Z,217.65
2022-08-30T06:47:40.143Z,195.07
2022-08-30T06:50:11.936Z,214.77
2022-08-30T06:52:41.805Z,232.10
2022-08-30T06:55:11.217Z,164.82
2022-08-30T06:57:39.348Z,276.80
2022-08-30T07:00:12.748Z,196.10
2022-08-30T07:02:41.659Z,151.35
2022-08-30T07:05:15.430Z,259.70
2022-08-30T07:07:46.454Z,222.50
2022-08-30T07:10:16.251Z,257.58
2022-08-30T07:12:44.250Z,156.95
2022-08-30T07:15:14.539Z,78.53
2022-08-30T07:17:59.994Z,88.38
2022-08-30T07:20:28.403Z,92.10
2022-08-30T07:23:09.313Z,109.72
2022-08-30T07:25:37.785Z,134.20
2022-08-30T07:28:07.525Z,132.52
2022-08-30T07:30:37.765Z,155.73
2022-08-30T07:33:06.308Z,150.88
2022-08-30T07:35:34.324Z,203.75
2022-08-30T07:38:02.449Z,185.18
2022-08-30T07:40:30.784Z,146.50
2022-08-30T07:43:02.283Z,149.35
2022-08-30T07:45:30.740Z,194.68
2022-08-30T07:48:00.627Z,143.38
2022-08-30T07:50:28.704Z,140.52
2022-08-30T07:52:57.000Z,132.48
2022-08-30T07:55:25.281Z,118.07
2022-08-30T07:57:53.241Z,115.72
2022-08-30T08:00:21.582Z,106.80
2022-08-30T08:02:49.886Z,105.53
2022-08-30T08:05:22.038Z,102.63
2022-08-30T08:07:52.838Z,91.75
2022-08-30T08:10:21.069Z,90.30
2022-08-30T08:12:49.723Z,88.60
2022-08-30T08:15:20.685Z,107.43
2022-08-30T08:17:48.463Z,139.38
2022-08-30T08:20:16.753Z,112.25
2022-08-30T08:22:46.776Z,84.53
2022-08-30T08:25:15.966Z,78.55
2022-08-30T08:27:44.015Z,95.28
2022-08-30T08:30:12.521Z,93.10
2022-08-30T08:32:42.486Z,102.38
2022-08-30T08:35:11.918Z,136.65
2022-08-30T08:37:40.785Z,105.25
2022-08-30T08:40:16.069Z,113.47
2022-08-30T08:42:57.441Z,124.00
2022-08-30T08:45:37.442Z,94.03
2022-08-30T08:48:11.971Z,123.07
2022-08-30T08:51:02.811Z,116.85
2022-08-30T08:53:46.107Z,82.82
2022-08-30T08:56:19.228Z,83.50
2022-08-30T08:58:49.965Z,93.68
2022-08-30T09:01:21.975Z,95.65
2022-08-30T09:03:51.067Z,105.40
2022-08-30T09:06:45.392Z,108.85
2022-08-30T09:09:14.032Z,116.80
2022-08-30T09:11:44.647Z,116.85
2022-08-30T09:14:15.898Z,99.15
2022-08-30T09:16:49.712Z,89.10
2022-08-30T09:19:40.082Z,92.25
2022-08-30T09:22:16.577Z,87.82
2022-08-30T09:24:47.311Z,80.45
2022-08-30T09:27:24.026Z,78.40
2022-08-30T09:29:58.243Z,90.25
2022-08-30T09:32:29.277Z,105.18
2022-08-30T09:34:57.274Z,109.60
2022-08-30T09:37:38.902Z,96.35
2022-08-30T09:40:14.633Z,94.78
2022-08-30T09:43:00.847Z,102.32
2022-08-30T09:45:33.181Z,107.97
2022-08-30T09:48:01.069Z,136.18
2022-08-30T09:50:36.730Z,129.38
2022-08-30T09:53:11.988Z,136.65
2022-08-30T09:55:54.294Z,141.90
2022-08-30T09:58:31.698Z,135.80
2022-08-30T10:01:13.358Z,126.07
2022-08-30T10:03:50.190Z,93.25
2022-08-30T10:06:27.901Z,71.15
2022-08-30T10:09:06.809Z,50.22
2022-08-30T10:11:40.742Z,45.88
2022-08-30T10:14:35.949Z,45.20
2022-08-30T10:17:10.983Z,44.13
2022-08-30T10:19:58.772Z,46.08
2022-08-30T10:22:32.394Z,50.08
2022-08-30T10:25:08.375Z,63.78
2022-08-30T10:27:42.954Z,55.25
2022-08-30T10:30:15.253Z,60.55
2022-08-30T10:32:49.513Z,57.67
2022-08-30T10:35:22.050Z,56.25
2022-08-30T10:37:53.575Z,62.55
2022-08-30T10:40:46.396Z,57.58
2022-08-30T10:43:23.783Z,65.07
2022-08-30T10:45:58.690Z,77.32
2022-08-30T10:48:32.149Z,120.47
2022-08-30T10:51:10.423Z,80.78
2022-08-30T10:53:44.699Z,72.05
2022-08-30T10:56:16.478Z,64.25
2022-08-30T10:58:44.936Z,59.65
2022-08-30T11:02:03.476Z,62.67
2022-08-30T11:05:16.793Z,58.85
2022-08-30T11:07:54.463Z,64.25
2022-08-30T11:10:36.585Z,62.30
2022-08-30T11:13:10.849Z,60.90
2022-08-30T11:15:55.056Z,58.65
2022-08-30T11:18:27.331Z,52.05
2022-08-30T11:21:16.986Z,51.83
2022-08-30T11:24:00.729Z,45.22
2022-08-30T11:26:57.461Z,52.33
2022-08-30T11:29:47.558Z,43.95
2022-08-30T11:32:46.888Z,43.03
2022-08-30T11:35:37.859Z,50.08
2022-08-30T11:38:18.198Z,51.72
2022-08-30T11:40:50.785Z,49.08
2022-08-30T11:43:58.610Z,53.67
2022-08-30T11:46:39.254Z,48.03
2022-08-30T11:49:47.228Z,48.58
2022-08-30T11:52:52.412Z,43.75
2022-08-30T11:55:35.874Z,44.65
2022-08-30T11:58:18.158Z,46.45
2022-08-30T12:00:52.618Z,45.80
2022-08-30T12:03:33.604Z,40.90
2022-08-30T12:06:05.712Z,42.67
2022-08-30T12:09:02.336Z,42.70
2022-08-30T12:12:02.477Z,41.00
2022-08-30T12:14:42.586Z,43.40
2022-08-30T12:17:38.938Z,46.45
2022-08-30T12:20:18.522Z,49.88
2022-08-30T12:22:47.835Z,56.83
2022-08-30T12:25:25.526Z,52.88
2022-08-30T12:28:10.189Z,52.40
2022-08-30T12:30:40.320Z,49.15
2022-08-30T12:33:14.121Z,55.83
2022-08-30T12:35:45.768Z,65.63
2022-08-30T12:38:19.204Z,96.18
2022-08-30T12:41:00.663Z,90.78
2022-08-30T12:43:38.841Z,146.23
2022-08-30T12:46:12.499Z,140.30
2022-08-30T12:48:44.239Z,204.95
2022-08-30T12:51:45.096Z,224.52
2022-08-30T12:54:21.348Z,77.28
2022-08-30T12:56:56.020Z,80.47
2022-08-30T12:59:55.493Z,70.25
2022-08-30T13:02:28.038Z,52.00
2022-08-30T13:04:57.871Z,46.58
2022-08-30T13:07:34.557Z,69.20
2022-08-30T13:10:12.025Z,66.57
2022-08-30T13:12:41.520Z,54.80
2022-08-30T13:15:16.852Z,45.67
2022-08-30T13:17:46.455Z,49.00
2022-08-30T13:20:27.453Z,42.50
2022-08-30T13:23:08.032Z,45.70
2022-08-30T13:25:38.380Z,43.05
2022-08-30T13:28:09.821Z,61.08
2022-08-30T13:30:38.309Z,57.00
2022-08-30T13:33:06.320Z,93.15
2022-08-30T13:35:36.730Z,60.47
2022-08-30T13:38:05.466Z,58.70
2022-08-30T13:40:33.453Z,52.60
2022-08-30T13:43:02.128Z,38.95
2022-08-30T13:45:47.173Z,37.33
2022-08-30T13:48:17.523Z,42.55
2022-08-30T13:50:54.274Z,45.05
2022-08-30T13:56:14.186Z,44.08
2022-08-30T13:58:42.473Z,48.03
2022-08-30T14:01:11.787Z,48.22
2022-08-30T14:04:13.159Z,59.83
2022-08-30T14:06:34.116Z,54.85
2022-08-30T14:09:04.397Z,55.25
2022-08-30T14:11:32.563Z,60.95
2022-08-30T14:14:25.202Z,68.75
2022-08-30T14:16:50.509Z,45.20
2022-08-30T14:19:20.052Z,46.20
2022-08-30T14:21:49.128Z,43.03
2022-08-30T14:24:19.970Z,41.20
2022-08-30T14:26:51.552Z,34.90
2022-08-30T14:29:21.702Z,31.60
2022-08-30T14:31:51.074Z,33.10
2022-08-30T14:34:19.474Z,32.38
2022-08-30T14:36:47.792Z,31.95
2022-08-30T14:39:18.270Z,31.00
2022-08-30T14:41:47.836Z,31.00
2022-08-30T14:44:17.105Z,33.38
2022-08-30T14:46:45.165Z,33.53
2022-08-30T14:49:15.791Z,35.75
2022-08-30T14:51:46.277Z,34.67
2022-08-30T14:54:14.437Z,33.42
2022-08-30T14:56:43.423Z,32.00
2022-08-30T14:59:12.171Z,32.25
2022-08-30T15:01:42.677Z,32.60
2022-08-30T15:04:11.449Z,29.20
2022-08-30T15:06:43.093Z,30.88
2022-08-30T15:09:14.782Z,33.15
2022-08-30T15:11:44.602Z,29.55
2022-08-30T15:14:16.266Z,34.03
2022-08-30T15:16:45.091Z,35.42
2022-08-30T15:19:14.480Z,41.42
2022-08-30T15:21:47.687Z,35.20
2022-08-30T15:24:18.652Z,33.90
2022-08-30T15:26:46.647Z,40.50
2022-08-30T15:29:17.357Z,39.65
2022-08-30T15:31:46.858Z,39.42
2022-08-30T15:34:20.340Z,45.80
2022-08-30T15:36:50.445Z,81.43
2022-08-30T15:39:19.356Z,47.42
2022-08-30T15:41:55.728Z,37.42
2022-08-30T15:44:26.846Z,40.67
2022-08-30T15:46:54.987Z,42.67
2022-08-30T15:49:24.642Z,39.28
2022-08-30T15:51:54.691Z,37.53
2022-08-30T15:54:24.820Z,34.90
2022-08-30T15:56:59.381Z,32.03
2022-08-30T15:59:28.832Z,33.63
2022-08-30T16:01:57.495Z,33.67
2022-08-30T16:04:25.916Z,32.30
2022-08-30T16:06:55.436Z,31.10
2022-08-30T16:09:24.816Z,31.40
2022-08-30T16:11:52.826Z,29.65
2022-08-30T16:14:20.848Z,31.08
2022-08-30T16:16:48.838Z,32.13
2022-08-30T16:19:17.190Z,31.00
2022-08-30T16:21:45.678Z,31.40
2022-08-30T16:24:15.376Z,35.22
2022-08-30T16:26:44.669Z,31.45
2022-08-30T16:29:14.579Z,28.42
2022-08-30T16:31:44.960Z,31.48
2022-08-30T16:34:14.566Z,28.20
2022-08-30T16:36:42.366Z,28.67
2022-08-30T16:39:12.966Z,26.73
2022-08-30T16:41:44.816Z,27.00
2022-08-30T16:44:13.306Z,24.55
2022-08-30T16:46:43.868Z,24.98
2022-08-30T16:49:22.648Z,22.40
2022-08-30T16:51:51.030Z,21.77
2022-08-30T16:54:20.274Z,22.13
2022-08-30T16:56:50.163Z,22.25
2022-08-30T16:59:18.887Z,22.23
2022-08-30T17:01:48.329Z,21.70
2022-08-30T17:04:19.406Z,23.10
2022-08-30T17:06:49.548Z,24.63
2022-08-30T17:09:18.556Z,22.73
2022-08-30T17:11:46.833Z,24.30
2022-08-30T17:14:20.146Z,22.77
2022-08-30T17:16:51.311Z,25.87
2022-08-30T17:19:26.825Z,27.73
2022-08-30T17:21:56.893Z,23.48
2022-08-30T17:24:26.128Z,23.13
2022-08-30T17:26:54.535Z,23.90
2022-08-30T17:29:23.841Z,23.87
2022-08-30T17:31:52.126Z,22.77
2022-08-30T17:34:21.950Z,23.77
2022-08-30T17:36:51.110Z,20.37
2022-08-30T17:39:19.530Z,19.63
2022-08-30T17:41:50.748Z,21.20
2022-08-30T17:44:20.344Z,19.73
2022-08-30T17:46:49.770Z,21.20
2022-08-30T17:49:18.103Z,21.67
2022-08-30T17:51:47.788Z,23.47
2022-08-30T17:54:15.879Z,22.37
2022-08-30T17:56:44.250Z,23.27
2022-08-30T17:59:13.424Z,25.13
2022-08-30T18:01:42.742Z,25.27
2022-08-30T18:04:14.579Z,24.90
2022-08-30T18:06:49.262Z,27.50
2022-08-30T18:09:17.838Z,28.27
2022-08-30T18:11:45.986Z,25.63
2022-08-30T18:14:16.310Z,27.53
2022-08-30T18:16:53.307Z,27.87
2022-08-30T18:19:24.810Z,26.10
2022-08-30T18:21:53.119Z,27.83
2022-08-30T18:24:21.444Z,28.13
2022-08-30T18:26:49.394Z,27.23
2022-08-30T18:29:26.286Z,27.30
2022-08-30T18:31:59.030Z,25.47
2022-08-30T18:34:29.356Z,24.97
2022-08-30T18:36:57.814Z,25.30
2022-08-30T18:39:26.367Z,26.37
2022-08-30T18:41:56.819Z,24.27
2022-08-30T18:44:28.858Z,27.40
2022-08-30T18:46:57.691Z,26.83
2022-08-30T18:49:26.427Z,29.57
2022-08-30T18:51:55.769Z,36.70
2022-08-30T18:54:24.236Z,31.77
2022-08-30T18:56:52.092Z,33.43
2022-08-30T18:59:20.876Z,32.03
2022-08-30T19:04:36.852Z,37.17
2022-08-30T19:07:09.380Z,46.47
2022-08-30T19:09:37.881Z,40.93
2022-08-30T19:12:09.447Z,53.90
2022-08-30T19:14:39.611Z,53.17
2022-08-30T19:17:08.113Z,56.00
2022-08-30T19:19:48.428Z,50.17
2022-08-30T19:22:19.423Z,52.80
2022-08-30T19:24:49.715Z,88.20
2022-08-30T19:30:09.958Z,55.13
2022-08-30T19:32:37.946Z,81.07
2022-08-30T19:35:06.561Z,54.07
2022-08-30T19:37:36.427Z,66.00
2022-08-30T19:40:07.924Z,49.40
2022-08-30T19:42:43.313Z,49.10
2022-08-30T19:45:17.744Z,51.30
2022-08-30T19:50:34.436Z,59.47
2022-08-30T19:53:06.786Z,74.63
2022-08-30T19:55:37.320Z,49.67
2022-08-30T19:58:05.912Z,40.13
2022-08-30T20:00:34.301Z,45.53
2022-08-30T20:03:05.503Z,38.10
2022-08-30T20:05:34.864Z,29.90
2022-08-30T20:08:03.423Z,32.17
2022-08-30T20:10:33.337Z,24.47
2022-08-30T20:13:01.308Z,23.43
2022-08-30T20:15:29.145Z,24.63
2022-08-30T20:20:49.680Z,36.43
2022-08-30T20:23:21.490Z,23.10
2022-08-30T20:24:30.068Z,35.30
2022-08-30T20:25:52.893Z,27.73
2022-08-30T20:28:21.276Z,24.50
2022-08-30T20:30:49.185Z,27.83
2022-08-30T20:33:17.319Z,38.53
2022-08-30T20:35:49.027Z,20.90
2022-08-30T20:38:20.720Z,29.90
2022-08-30T20:40:51.845Z,22.23
2022-08-30T20:43:23.508Z,19.70
2022-08-30T20:45:51.441Z,23.03
2022-08-30T20:48:19.898Z,20.17
2022-08-30T20:50:48.150Z,28.27
2022-08-30T20:53:16.734Z,21.97
2022-08-30T20:55:46.428Z,20.73
2022-08-30T20:58:15.239Z,33.13
2022-08-30T21:00:45.673Z,67.97
2022-08-30T21:03:27.513Z,17.80
2022-08-30T21:05:57.152Z,43.07
2022-08-30T21:08:25.534Z,30.83
2022-08-30T21:10:53.883Z,79.90
2022-08-30T21:13:22.681Z,25.33
2022-08-30T21:15:54.983Z,19.67
2022-08-30T21:18:28.482Z,81.00
2022-08-30T21:20:56.457Z,46.43
2022-08-30T21:23:24.518Z,222.80
2022-08-30T21:25:52.457Z,36.53
2022-08-30T21:28:21.114Z,37.20
2022-08-30T21:30:49.076Z,33.87
2022-08-30T21:33:18.357Z,35.63
2022-08-30T21:36:03.324Z,19.63
2022-08-30T21:38:31.378Z,22.80
2022-08-30T21:40:59.223Z,25.77
2022-08-30T21:43:26.991Z,38.17
2022-08-30T21:45:54.981Z,32.63
2022-08-30T21:48:24.150Z,38.33
2022-08-30T21:50:52.053Z,72.17
2022-08-30T21:53:20.371Z,29.37
2022-08-30T21:55:48.352Z,33.80
2022-08-30T21:58:16.538Z,24.00
2022-08-30T22:00:44.495Z,25.40
2022-08-30T22:03:12.856Z,20.03
2022-08-30T22:05:42.583Z,23.50
2022-08-30T22:08:10.590Z,20.73
2022-08-30T22:10:38.451Z,22.03
2022-08-30T22:13:10.109Z,20.80
2022-08-30T22:15:39.094Z,22.70
2022-08-30T22:18:07.665Z,25.87
2022-08-30T22:20:36.000Z,24.23
2022-08-30T22:23:06.425Z,24.80
2022-08-30T22:25:34.863Z,21.43
2022-08-30T22:28:04.404Z,35.50
2022-08-30T22:30:33.989Z,24.53
2022-08-30T22:33:01.992Z,21.70
2022-08-30T22:35:30.346Z,24.27
2022-08-30T22:37:58.200Z,23.07
2022-08-30T22:40:28.712Z,27.00
2022-08-30T22:42:57.329Z,49.43
2022-08-30T22:45:26.459Z,26.40
2022-08-30T22:47:54.997Z,22.87
2022-08-30T22:50:24.293Z,22.83
2022-08-30T22:52:52.638Z,34.67
2022-08-30T22:55:20.942Z,23.80
2022-08-30T22:57:50.441Z,25.07
2022-08-30T23:00:20.467Z,23.83
2022-08-30T23:02:50.133Z,25.47
2022-08-30T23:05:18.961Z,23.27
2022-08-30T23:07:46.741Z,22.70
2022-08-30T23:10:15.991Z,23.90
2022-08-30T23:12:44.979Z,22.07
2022-08-30T23:15:17.111Z,23.60
2022-08-30T23:17:45.070Z,24.97
2022-08-30T23:20:13.564Z,22.90
2022-08-30T23:22:41.621Z,30.97
2022-08-30T23:25:32.018Z,77.67
2022-08-30T23:28:21.383Z,24.53
2022-08-30T23:31:08.106Z,22.73
2022-08-30T23:33:53.790Z,23.67
2022-08-30T23:36:38.996Z,28.07
2022-08-30T23:39:24.902Z,45.13
2022-08-30T23:42:10.428Z,33.33
2022-08-30T23:44:55.798Z,24.63
2022-08-30T23:47:42.558Z,119.47
2022-08-30T23:50:27.865Z,29.93
2022-08-30T23:53:13.260Z,72.93
2022-08-30T23:55:59.100Z,46.23
2022-08-30T23:58:44.395Z,40.57
